createdAt,value
2022-09-28T00:00:23.820Z,93760.91
2022-09-28T00:01:26.160Z,93755.28
2022-09-28T00:02:28.744Z,93762.97
2022-09-28T00:03:30.326Z,93760.91
2022-09-28T00:04:33.497Z,93763.13
2022-09-28T00:05:35.505Z,93766.66
2022-09-28T00:06:37.588Z,93756.06
2022-09-28T00:07:39.147Z,93763.13
2022-09-28T00:08:40.891Z,93753.25
2022-09-28T00:09:43.207Z,93752.50
2022-09-28T00:10:45.713Z,93750.44
2022-09-28T00:11:47.528Z,93756.06
2022-09-28T00:12:50.332Z,93762.97
2022-09-28T00:13:53.415Z,93763.56
2022-09-28T00:14:55.694Z,93765.63
2022-09-28T00:16:04.949Z,93758.56
2022-09-28T00:17:07.239Z,93758.09
2022-09-28T00:18:08.756Z,93751.75
2022-09-28T00:19:12.545Z,93755.28
2022-09-28T00:20:14.428Z,93753.81
2022-09-28T00:21:19.221Z,93759.44
2022-09-28T00:22:20.756Z,93747.47
2022-09-28T00:23:22.337Z,93744.09
2022-09-28T00:24:27.469Z,93744.09
2022-09-28T00:25:29.868Z,93748.94
2022-09-28T00:26:33.210Z,93747.47
2022-09-28T00:27:34.747Z,93744.69
2022-09-28T00:28:37.680Z,93741.88
2022-09-28T00:29:39.263Z,93747.47
2022-09-28T00:30:40.785Z,93748.81
2022-09-28T00:31:42.432Z,93758.69
2022-09-28T00:32:44.002Z,93757.22
2022-09-28T00:33:45.683Z,93753.09
2022-09-28T00:34:48.824Z,93758.56
2022-09-28T00:35:59.578Z,93751.16
2022-09-28T00:37:02.675Z,93744.53
2022-09-28T00:38:04.228Z,93746.00
2022-09-28T00:39:07.740Z,93736.88
2022-09-28T00:40:09.592Z,93744.53
2022-09-28T00:41:11.557Z,93750.16
2022-09-28T00:42:25.244Z,93743.47
2022-09-28T00:43:26.979Z,93746.00
2022-09-28T00:45:00.948Z,93737.75
2022-09-28T00:46:06.511Z,93751.75
2022-09-28T00:47:13.952Z,93759.84
2022-09-28T00:48:15.482Z,93748.66
2022-09-28T00:49:20.464Z,93756.91
2022-09-28T00:50:29.056Z,93749.09
2022-09-28T00:51:31.949Z,93752.78
2022-09-28T00:52:50.893Z,93755.41
2022-09-28T00:53:56.127Z,93754.25
2022-09-28T00:55:02.075Z,93749.81
2022-09-28T00:56:17.465Z,93745.41
2022-09-28T00:57:21.140Z,93749.09
2022-09-28T00:58:30.019Z,93746.88
2022-09-28T00:59:33.504Z,93748.50
2022-09-28T01:00:35.300Z,93744.38
2022-09-28T01:01:37.545Z,93748.34
2022-09-28T01:02:39.435Z,93748.34
2022-09-28T01:03:45.255Z,93744.22
2022-09-28T01:04:47.376Z,93746.44
2022-09-28T01:05:50.776Z,93758.38
2022-09-28T01:06:52.437Z,93751.31
2022-09-28T01:07:56.303Z,93749.25
2022-09-28T01:09:00.453Z,93744.22
2022-09-28T01:10:02.723Z,93751.31
2022-09-28T01:11:04.739Z,93750.59
2022-09-28T01:12:07.367Z,93745.53
2022-09-28T01:13:09.963Z,93756.03
2022-09-28T01:14:15.219Z,93757.91
2022-09-28T01:15:16.908Z,93748.34
2022-09-28T01:16:35.337Z,93757.78
2022-09-28T01:17:58.168Z,93749.38
2022-09-28T01:19:24.561Z,93755.28
2022-09-28T01:20:44.161Z,93751.00
2022-09-28T01:21:54.010Z,93753.22
2022-09-28T01:23:29.068Z,93742.44
2022-09-28T01:24:36.677Z,93753.94
2022-09-28T01:25:50.973Z,93743.78
2022-09-28T01:27:17.735Z,93747.31
2022-09-28T01:28:23.621Z,93740.97
2022-09-28T01:29:55.450Z,93748.47
2022-09-28T01:31:12.628Z,93756.16
2022-09-28T01:32:38.349Z,93751.44
2022-09-28T01:33:48.119Z,93755.56
2022-09-28T01:34:59.848Z,93758.22
2022-09-28T01:36:28.438Z,93764.56
2022-09-28T01:37:44.677Z,93758.94
2022-09-28T01:39:08.009Z,93748.47
2022-09-28T01:40:12.160Z,93763.53
2022-09-28T01:41:17.510Z,93771.06
2022-09-28T01:42:27.337Z,93763.09
2022-09-28T01:43:31.174Z,93761.00
2022-09-28T01:44:39.863Z,93761.59
2022-09-28T01:45:47.163Z,93756.56
2022-09-28T01:46:50.550Z,93758.94
2022-09-28T01:47:58.383Z,93760.13
2022-09-28T01:49:08.157Z,93757.16
2022-09-28T01:50:14.862Z,93759.38
2022-09-28T01:51:22.562Z,93758.63
2022-09-28T01:52:53.744Z,93765.41
2022-09-28T01:54:01.182Z,93772.81
2022-09-28T01:55:11.043Z,93773.97
2022-09-28T01:56:29.712Z,93766.91
2022-09-28T01:57:38.531Z,93763.50
2022-09-28T01:58:53.181Z,93766.91
2022-09-28T02:00:04.037Z,93773.97
2022-09-28T02:01:16.286Z,93765.41
2022-09-28T02:02:22.594Z,93768.50
2022-09-28T02:03:32.003Z,93757.16
2022-09-28T02:04:39.547Z,93757.91
2022-09-28T02:05:45.590Z,93763.50
2022-09-28T02:06:53.852Z,93768.94
2022-09-28T02:08:28.857Z,93765.84
2022-09-28T02:09:42.118Z,93771.00
2022-09-28T02:10:56.859Z,93771.00
2022-09-28T02:12:02.961Z,93777.94
2022-09-28T02:13:12.350Z,93772.19
2022-09-28T02:14:17.632Z,93773.66
2022-09-28T02:15:37.413Z,93775.56
2022-09-28T02:16:44.978Z,93773.66
2022-09-28T02:17:46.991Z,93775.88
2022-09-28T02:18:48.541Z,93754.94
2022-09-28T02:19:50.189Z,93771.00
2022-09-28T02:21:21.003Z,93775.56
2022-09-28T02:22:31.996Z,93776.31
2022-09-28T02:23:37.205Z,93774.41
2022-09-28T02:24:43.009Z,93773.50
2022-09-28T02:25:53.084Z,93761.41
2022-09-28T02:26:59.444Z,93769.38
2022-09-28T02:28:11.039Z,93777.63
2022-09-28T02:29:13.026Z,93761.72
2022-09-28T02:30:14.706Z,93770.69
2022-09-28T02:31:16.397Z,93766.56
2022-09-28T02:32:20.194Z,93777.03
2022-09-28T02:33:31.745Z,93774.09
2022-09-28T02:34:33.527Z,93771.44
2022-09-28T02:35:35.409Z,93771.44
2022-09-28T02:36:37.290Z,93766.44
2022-09-28T02:37:40.056Z,93774.84
2022-09-28T02:38:41.659Z,93766.25
2022-09-28T02:39:43.233Z,93760.81
2022-09-28T02:40:57.290Z,93763.31
2022-09-28T02:42:13.504Z,93767.47
2022-09-28T02:43:26.878Z,93761.25
2022-09-28T02:44:40.599Z,93770.41
2022-09-28T02:45:56.327Z,93760.31
2022-09-28T02:46:57.957Z,93763.47
2022-09-28T02:48:05.588Z,93765.94
2022-09-28T02:49:28.092Z,93765.19
2022-09-28T02:50:44.842Z,93772.88
2022-09-28T02:51:55.100Z,93775.84
2022-09-28T02:53:14.920Z,93768.59
2022-09-28T02:55:00.959Z,93768.41
2022-09-28T02:56:27.173Z,93778.31
2022-09-28T02:57:50.857Z,93783.16
2022-09-28T02:59:29.574Z,93783.16
2022-09-28T03:00:36.944Z,93777.13
2022-09-28T03:01:58.618Z,93779.47
2022-09-28T03:03:19.142Z,93787.28
2022-09-28T03:04:36.373Z,93784.06
2022-09-28T03:06:01.265Z,93792.16
2022-09-28T03:07:16.376Z,93786.56
2022-09-28T03:08:27.841Z,93788.03
2022-09-28T03:09:40.218Z,93776.09
2022-09-28T03:10:49.812Z,93789.53
2022-09-28T03:11:56.949Z,93799.97
2022-09-28T03:12:59.414Z,93794.97
2022-09-28T03:14:03.263Z,93793.50
2022-09-28T03:15:24.094Z,93800.06
2022-09-28T03:16:27.563Z,93804.09
2022-09-28T03:17:29.262Z,93801.88
2022-09-28T03:18:32.288Z,93803.38
2022-09-28T03:19:34.895Z,93805.44
2022-09-28T03:20:37.269Z,93809.69
2022-09-28T03:21:39.047Z,93809.56
2022-09-28T03:22:40.606Z,93806.16
2022-09-28T03:23:42.556Z,93797.75
2022-09-28T03:24:44.081Z,93804.84
2022-09-28T03:25:45.650Z,93799.22
2022-09-28T03:26:47.194Z,93806.16
2022-09-28T03:27:48.700Z,93807.50
2022-09-28T03:28:50.222Z,93813.09
2022-09-28T03:29:51.759Z,93812.34
2022-09-28T03:30:53.433Z,93806.00
2022-09-28T03:31:55.108Z,93815.31
2022-09-28T03:33:00.807Z,93808.97
2022-09-28T03:34:02.452Z,93804.69
2022-09-28T03:35:04.933Z,93808.97
2022-09-28T03:36:08.692Z,93816.03
2022-09-28T03:37:10.226Z,93816.03
2022-09-28T03:38:11.757Z,93814.56
2022-09-28T03:39:13.265Z,93811.03
2022-09-28T03:40:15.024Z,93814.56
2022-09-28T03:41:16.630Z,93811.16
2022-09-28T03:42:18.133Z,93806.91
2022-09-28T03:43:19.656Z,93807.50
2022-09-28T03:44:21.187Z,93812.34
2022-09-28T03:45:22.737Z,93804.69
2022-09-28T03:46:24.389Z,93804.69
2022-09-28T03:47:25.973Z,93797.75
2022-09-28T03:48:33.206Z,93807.50
2022-09-28T03:49:35.320Z,93804.69
2022-09-28T03:50:36.865Z,93809.56
2022-09-28T03:51:38.464Z,93808.22
2022-09-28T03:52:40.146Z,93812.50
2022-09-28T03:53:41.712Z,93816.03
2022-09-28T03:54:48.297Z,93815.31
2022-09-28T03:55:53.153Z,93811.75
2022-09-28T03:56:54.926Z,93813.81
2022-09-28T03:57:56.468Z,93818.69
2022-09-28T03:58:57.972Z,93818.69
2022-09-28T03:59:59.937Z,93821.50
2022-09-28T04:01:07.786Z,93809.38
2022-09-28T04:02:10.318Z,93807.63
2022-09-28T04:03:11.887Z,93801.47
2022-09-28T04:04:13.968Z,93807.50
2022-09-28T04:05:15.566Z,93795.56
2022-09-28T04:06:17.149Z,93800.38
2022-09-28T04:07:18.699Z,93807.19
2022-09-28T04:08:20.628Z,93812.03
2022-09-28T04:09:22.154Z,93804.38
2022-09-28T04:10:24.841Z,93805.84
2022-09-28T04:11:26.605Z,93800.25
2022-09-28T04:12:28.136Z,93800.25
2022-09-28T04:13:30.436Z,93804.53
2022-09-28T04:14:32.049Z,93806.75
2022-09-28T04:15:33.550Z,93817.19
2022-09-28T04:16:35.127Z,93810.13
2022-09-28T04:17:40.080Z,93811.59
2022-09-28T04:18:42.539Z,93803.03
2022-09-28T04:19:44.079Z,93804.53
2022-09-28T04:20:48.008Z,93815.72
2022-09-28T04:21:52.894Z,93812.94
2022-09-28T04:22:55.245Z,93817.97
2022-09-28T04:23:58.112Z,93811.03
2022-09-28T04:24:59.696Z,93818.69
2022-09-28T04:26:01.883Z,93818.84
2022-09-28T04:27:22.318Z,93809.56
2022-09-28T04:28:42.875Z,93818.69
2022-09-28T04:29:44.409Z,93822.78
2022-09-28T04:30:47.502Z,93816.47
2022-09-28T04:31:51.756Z,93815.00
2022-09-28T04:32:53.304Z,93815.91
2022-09-28T04:33:54.825Z,93814.41
2022-09-28T04:34:56.369Z,93815.72
2022-09-28T04:35:57.855Z,93813.09
2022-09-28T04:36:59.399Z,93824.28
2022-09-28T04:38:00.921Z,93817.19
2022-09-28T04:39:02.505Z,93814.41
2022-09-28T04:40:04.465Z,93811.75
2022-09-28T04:41:06.147Z,93807.63
2022-09-28T04:42:11.121Z,93811.59
2022-09-28T04:43:12.638Z,93816.03
2022-09-28T04:44:14.197Z,93821.81
2022-09-28T04:45:15.856Z,93812.06
2022-09-28T04:46:17.498Z,93805.34
2022-09-28T04:47:19.074Z,93808.44
2022-09-28T04:48:20.605Z,93808.75
2022-09-28T04:49:22.361Z,93817.47
2022-09-28T04:50:23.865Z,93812.59
2022-09-28T04:51:25.591Z,93809.06
2022-09-28T04:52:27.300Z,93798.59
2022-09-28T04:53:29.992Z,93803.47
2022-09-28T04:54:31.567Z,93801.41
2022-09-28T04:55:33.219Z,93797.88
2022-09-28T04:56:34.717Z,93807.59
2022-09-28T04:57:36.285Z,93802.13
2022-09-28T04:58:38.237Z,93805.09
2022-09-28T04:59:39.843Z,93807.63
2022-09-28T05:00:41.605Z,93803.22
2022-09-28T05:01:43.175Z,93813.72
2022-09-28T05:02:44.744Z,93809.50
2022-09-28T05:03:46.311Z,93810.84
2022-09-28T05:04:47.917Z,93814.53
2022-09-28T05:05:49.779Z,93812.47
2022-09-28T05:06:51.358Z,93812.47
2022-09-28T05:07:52.917Z,93816.56
2022-09-28T05:08:57.343Z,93812.16
2022-09-28T05:09:58.923Z,93812.59
2022-09-28T05:11:03.224Z,93817.91
2022-09-28T05:12:04.797Z,93822.59
2022-09-28T05:13:07.275Z,93822.28
2022-09-28T05:14:10.682Z,93822.13
2022-09-28T05:15:12.285Z,93817.84
2022-09-28T05:16:16.200Z,93818.47
2022-09-28T05:17:17.832Z,93821.09
2022-09-28T05:18:19.501Z,93810.47
2022-09-28T05:19:21.031Z,93814.44
2022-09-28T05:20:22.568Z,93817.25
2022-09-28T05:21:26.357Z,93823.00
2022-09-28T05:22:27.938Z,93823.31
2022-09-28T05:23:29.603Z,93822.44
2022-09-28T05:24:31.560Z,93821.16
2022-09-28T05:25:34.788Z,93821.31
2022-09-28T05:26:36.321Z,93825.22
2022-09-28T05:27:37.833Z,93818.44
2022-09-28T05:28:39.412Z,93820.22
2022-09-28T05:29:40.939Z,93819.66
2022-09-28T05:30:42.483Z,93814.63
2022-09-28T05:31:44.066Z,93818.19
2022-09-28T05:32:45.632Z,93817.31
2022-09-28T05:33:47.180Z,93814.31
2022-09-28T05:34:48.757Z,93813.88
2022-09-28T05:35:54.430Z,93816.97
2022-09-28T05:36:57.661Z,93812.97
2022-09-28T05:38:04.659Z,93819.94
2022-09-28T05:39:06.847Z,93828.53
2022-09-28T05:40:09.152Z,93825.56
2022-09-28T05:41:10.733Z,93829.69
2022-09-28T05:42:12.390Z,93825.25
2022-09-28T05:43:13.949Z,93829.41
2022-09-28T05:44:15.532Z,93827.19
2022-09-28T05:45:17.180Z,93830.59
2022-09-28T05:46:20.144Z,93836.34
2022-09-28T05:47:22.185Z,93837.53
2022-09-28T05:48:23.734Z,93833.84
2022-09-28T05:49:25.256Z,93834.84
2022-09-28T05:50:26.794Z,93836.63
2022-09-28T05:51:28.292Z,93827.31
2022-09-28T05:52:29.797Z,93824.09
2022-09-28T05:53:31.316Z,93821.13
2022-09-28T05:54:32.888Z,93817.56
2022-09-28T05:55:36.161Z,93822.28
2022-09-28T05:56:37.679Z,93820.97
2022-09-28T05:57:39.260Z,93824.22
2022-09-28T05:58:40.792Z,93822.00
2022-09-28T05:59:42.323Z,93823.50
2022-09-28T06:00:43.968Z,93817.88
2022-09-28T06:01:45.660Z,93819.34
2022-09-28T06:02:59.952Z,93821.25
2022-09-28T06:04:01.578Z,93822.28
2022-09-28T06:05:03.337Z,93818.91
2022-09-28T06:06:04.951Z,93818.47
2022-09-28T06:07:06.518Z,93822.00
2022-09-28T06:08:10.551Z,93826.72
2022-09-28T06:09:12.144Z,93828.19
2022-09-28T06:10:13.777Z,93832.50
2022-09-28T06:11:15.444Z,93832.34
2022-09-28T06:12:17.072Z,93828.66
2022-09-28T06:13:18.628Z,93832.03
2022-09-28T06:14:20.141Z,93833.22
2022-09-28T06:15:28.019Z,93830.72
2022-09-28T06:16:29.729Z,93832.94
2022-09-28T06:17:31.291Z,93832.06
2022-09-28T06:18:32.824Z,93831.31
2022-09-28T06:19:34.325Z,93830.84
2022-09-28T06:20:38.035Z,93837.22
2022-09-28T06:21:39.584Z,93840.59
2022-09-28T06:22:41.116Z,93834.25
2022-09-28T06:23:48.197Z,93830.56
2022-09-28T06:24:50.617Z,93837.34
2022-09-28T06:25:52.664Z,93831.59
2022-09-28T06:26:54.238Z,93835.72
2022-09-28T06:27:55.708Z,93840.00
2022-09-28T06:28:57.381Z,93835.72
2022-09-28T06:30:00.844Z,93842.81
2022-09-28T06:31:02.438Z,93844.84
2022-09-28T06:32:04.095Z,93832.16
2022-09-28T06:33:07.881Z,93841.91
2022-09-28T06:34:11.354Z,93833.63
2022-09-28T06:35:16.104Z,93840.00
2022-09-28T06:36:18.374Z,93841.47
2022-09-28T06:37:19.897Z,93849.16
2022-09-28T06:38:21.500Z,93844.84
2022-09-28T06:39:23.073Z,93839.84
2022-09-28T06:40:25.006Z,93842.66
2022-09-28T06:41:26.605Z,93837.03
2022-09-28T06:42:28.140Z,93844.00
2022-09-28T06:43:34.138Z,93846.78
2022-09-28T06:44:36.164Z,93846.78
2022-09-28T06:45:38.826Z,93858.31
2022-09-28T06:46:41.152Z,93856.97
2022-09-28T06:47:42.654Z,93862.59
2022-09-28T06:48:45.103Z,93859.19
2022-09-28T06:49:47.770Z,93853.44
2022-09-28T06:50:50.115Z,93847.09
2022-09-28T06:51:52.347Z,93851.22
2022-09-28T06:52:55.062Z,93860.94
2022-09-28T06:53:56.925Z,93857.56
2022-09-28T06:54:58.485Z,93857.56
2022-09-28T06:56:02.514Z,93851.22
2022-09-28T06:57:04.179Z,93846.94
2022-09-28T06:58:08.044Z,93849.59
2022-09-28T06:59:10.794Z,93849.59
2022-09-28T07:00:13.135Z,93854.59
2022-09-28T07:01:14.748Z,93849.59
2022-09-28T07:02:16.698Z,93841.91
2022-09-28T07:03:20.956Z,93847.66
2022-09-28T07:04:22.533Z,93852.53
2022-09-28T07:05:27.611Z,93852.53
2022-09-28T07:06:31.005Z,93856.84
2022-09-28T07:07:33.116Z,93856.84
2022-09-28T07:08:34.641Z,93857.56
2022-09-28T07:09:42.668Z,93862.44
2022-09-28T07:10:48.685Z,93855.50
2022-09-28T07:11:50.264Z,93859.06
2022-09-28T07:12:52.057Z,93866.72
2022-09-28T07:13:53.583Z,93860.94
2022-09-28T07:14:57.332Z,93860.94
2022-09-28T07:16:01.918Z,93864.34
2022-09-28T07:17:13.205Z,93858.00
2022-09-28T07:18:17.889Z,93858.75
2022-09-28T07:19:19.490Z,93860.94
2022-09-28T07:20:21.066Z,93862.44
2022-09-28T07:21:29.833Z,93855.34
2022-09-28T07:22:42.325Z,93865.25
2022-09-28T07:23:52.838Z,93872.47
2022-09-28T07:24:55.191Z,93872.63
2022-09-28T07:25:58.263Z,93875.44
2022-09-28T07:26:59.815Z,93871.31
2022-09-28T07:28:02.734Z,93876.91
2022-09-28T07:29:04.958Z,93878.38
2022-09-28T07:30:07.247Z,93874.28
2022-09-28T07:31:09.675Z,93876.47
2022-09-28T07:32:11.244Z,93875.75
2022-09-28T07:33:15.059Z,93872.78
2022-09-28T07:34:18.585Z,93872.03
2022-09-28T07:35:20.413Z,93868.66
2022-09-28T07:36:22.789Z,93872.78
2022-09-28T07:37:26.101Z,93882.53
2022-09-28T07:38:27.807Z,93876.91
2022-09-28T07:39:29.385Z,93875.44
2022-09-28T07:40:50.860Z,93874.28
2022-09-28T07:41:56.750Z,93877.09
2022-09-28T07:43:07.141Z,93868.38
2022-09-28T07:44:08.721Z,93879.16
2022-09-28T07:45:10.439Z,93883.88
2022-09-28T07:46:12.353Z,93889.47
2022-09-28T07:47:14.102Z,93885.94
2022-09-28T07:48:16.715Z,93874.72
2022-09-28T07:49:19.346Z,93869.84
2022-09-28T07:50:21.516Z,93870.41
2022-09-28T07:51:23.065Z,93883.13
2022-09-28T07:52:26.220Z,93873.97
2022-09-28T07:53:28.501Z,93880.16
2022-09-28T07:54:31.278Z,93885.19
2022-09-28T07:55:32.790Z,93877.34
2022-09-28T07:56:34.906Z,93869.84
2022-09-28T07:57:36.476Z,93875.44
2022-09-28T07:58:39.391Z,93882.53
2022-09-28T07:59:40.889Z,93887.25
2022-09-28T08:00:42.533Z,93889.91
2022-09-28T08:01:44.192Z,93885.03
2022-09-28T08:02:45.857Z,93893.44
2022-09-28T08:03:48.131Z,93882.22
2022-09-28T08:04:50.303Z,93883.69
2022-09-28T08:05:51.919Z,93877.53
2022-09-28T08:06:53.449Z,93883.88
2022-09-28T08:07:57.758Z,93884.59
2022-09-28T08:09:00.033Z,93878.38
2022-09-28T08:10:01.582Z,93884.44
2022-09-28T08:11:05.819Z,93885.19
2022-09-28T08:12:07.850Z,93875.88
2022-09-28T08:13:09.385Z,93879.41
2022-09-28T08:14:11.063Z,93884.91
2022-09-28T08:15:12.653Z,93889.75
2022-09-28T08:16:14.304Z,93887.69
2022-09-28T08:17:15.872Z,93891.97
2022-09-28T08:18:18.257Z,93885.63
2022-09-28T08:19:19.793Z,93885.63
2022-09-28T08:20:40.172Z,93893.31
2022-09-28T08:21:47.857Z,93896.13
2022-09-28T08:22:49.421Z,93890.50
2022-09-28T08:23:51.515Z,93885.63
2022-09-28T08:24:53.225Z,93887.69
2022-09-28T08:25:54.940Z,93887.53
2022-09-28T08:26:57.196Z,93895.94
2022-09-28T08:27:59.043Z,93894.63
2022-09-28T08:29:00.527Z,93896.84
2022-09-28T08:30:02.064Z,93897.59
2022-09-28T08:31:03.710Z,93891.97
2022-09-28T08:32:08.311Z,93882.66
2022-09-28T08:33:09.844Z,93894.63
2022-09-28T08:34:11.367Z,93894.63
2022-09-28T08:35:13.309Z,93901.72
2022-09-28T08:36:14.930Z,93899.66
2022-09-28T08:37:16.490Z,93894.63
2022-09-28T08:38:18.364Z,93889.00
2022-09-28T08:39:19.904Z,93881.31
2022-09-28T08:40:27.041Z,93886.19
2022-09-28T08:41:51.087Z,93883.09
2022-09-28T08:43:04.793Z,93876.91
2022-09-28T08:44:16.451Z,93884.56
2022-09-28T08:45:33.668Z,93881.94
2022-09-28T08:46:45.627Z,93882.66
2022-09-28T08:48:29.336Z,93891.81
2022-09-28T08:49:37.210Z,93890.94
2022-09-28T08:50:50.138Z,93885.03
2022-09-28T08:51:56.112Z,93883.69
2022-09-28T08:53:12.385Z,93879.28
2022-09-28T08:54:16.969Z,93876.63
2022-09-28T08:55:32.444Z,93879.28
2022-09-28T08:56:53.910Z,93879.13
2022-09-28T08:58:00.965Z,93864.66
2022-09-28T08:59:05.554Z,93856.84
2022-09-28T09:00:11.001Z,93858.88
2022-09-28T09:01:18.949Z,93875.72
2022-09-28T09:02:23.334Z,93868.06
2022-09-28T09:03:34.210Z,93879.28
2022-09-28T09:04:35.761Z,93874.41
2022-09-28T09:06:10.343Z,93862.03
2022-09-28T09:07:33.749Z,93864.38
2022-09-28T09:08:57.644Z,93861.56
2022-09-28T09:09:59.143Z,93864.56
2022-09-28T09:11:48.844Z,93857.16
2022-09-28T09:13:19.351Z,93862.19
2022-09-28T09:14:34.379Z,93860.56
2022-09-28T09:15:48.219Z,93866.31
2022-09-28T09:17:14.395Z,93866.31
2022-09-28T09:18:36.223Z,93871.50
2022-09-28T09:20:16.455Z,93864.84
2022-09-28T09:21:36.231Z,93859.41
2022-09-28T09:23:01.524Z,93854.50
2022-09-28T09:24:27.117Z,93849.47
2022-09-28T09:25:38.367Z,93850.22
2022-09-28T09:26:41.442Z,93849.78
2022-09-28T09:27:49.022Z,93845.34
2022-09-28T09:29:05.831Z,93853.63
2022-09-28T09:30:19.751Z,93850.97
2022-09-28T09:31:38.295Z,93855.25
2022-09-28T09:33:04.788Z,93846.09
2022-09-28T09:34:21.714Z,93845.78
2022-09-28T09:35:37.477Z,93851.56
2022-09-28T09:36:48.102Z,93851.88
2022-09-28T09:38:09.384Z,93844.19
2022-09-28T09:39:26.041Z,93853.78
2022-09-28T09:40:47.141Z,93844.63
2022-09-28T09:42:00.787Z,93838.72
2022-09-28T09:43:40.097Z,93849.22
2022-09-28T09:44:53.695Z,93844.50
2022-09-28T09:46:14.586Z,93842.13
2022-09-28T09:47:35.027Z,93837.41
2022-09-28T09:48:44.792Z,93842.41
2022-09-28T09:50:05.551Z,93839.00
2022-09-28T09:51:28.113Z,93840.94
2022-09-28T09:52:39.907Z,93837.53
2022-09-28T09:53:53.191Z,93832.09
2022-09-28T09:55:00.553Z,93841.09
2022-09-28T09:56:14.762Z,93845.38
2022-09-28T09:57:34.953Z,93839.44
2022-09-28T09:58:41.106Z,93842.41
2022-09-28T09:59:44.562Z,93846.13
2022-09-28T10:00:50.093Z,93842.41
2022-09-28T10:01:53.260Z,93840.50
2022-09-28T10:02:57.572Z,93846.84
2022-09-28T10:04:00.462Z,93839.16
2022-09-28T10:05:07.578Z,93837.09
2022-09-28T10:06:14.251Z,93845.38
2022-09-28T10:07:24.702Z,93834.16
2022-09-28T10:08:28.394Z,93834.44
2022-09-28T10:09:46.529Z,93832.81
2022-09-28T10:11:20.630Z,93837.38
2022-09-28T10:12:23.531Z,93838.41
2022-09-28T10:13:25.384Z,93834.72
2022-09-28T10:14:27.284Z,93833.97
2022-09-28T10:15:31.468Z,93825.72
2022-09-28T10:16:33.383Z,93827.91
2022-09-28T10:17:37.421Z,93824.97
2022-09-28T10:18:39.075Z,93820.97
2022-09-28T10:19:40.762Z,93823.78
2022-09-28T10:20:45.043Z,93821.13
2022-09-28T10:21:51.693Z,93828.19
2022-09-28T10:22:56.747Z,93826.72
2022-09-28T10:24:02.780Z,93818.47
2022-09-28T10:25:06.012Z,93807.22
2022-09-28T10:26:25.335Z,93810.63
2022-09-28T10:27:31.854Z,93803.25
2022-09-28T10:28:40.863Z,93811.66
2022-09-28T10:30:14.720Z,93804.25
2022-09-28T10:31:42.763Z,93805.28
2022-09-28T10:32:46.578Z,93804.09
2022-09-28T10:33:48.139Z,93805.44
2022-09-28T10:34:51.337Z,93801.91
2022-09-28T10:35:52.889Z,93797.03
2022-09-28T10:36:55.999Z,93804.72
2022-09-28T10:37:59.707Z,93798.94
2022-09-28T10:39:01.354Z,93794.81
2022-09-28T10:40:02.958Z,93798.50
2022-09-28T10:41:14.401Z,93797.47
2022-09-28T10:42:33.661Z,93796.00
2022-09-28T10:43:50.657Z,93794.81
2022-09-28T10:45:23.890Z,93797.47
2022-09-28T10:46:25.747Z,93795.09
2022-09-28T10:47:32.581Z,93794.22
2022-09-28T10:48:58.480Z,93796.13
2022-09-28T10:50:01.093Z,93790.22
2022-09-28T10:51:08.656Z,93790.66
2022-09-28T10:52:38.343Z,93788.44
2022-09-28T10:53:40.265Z,93786.69
2022-09-28T10:54:53.570Z,93785.06
2022-09-28T10:56:02.694Z,93783.88
2022-09-28T10:57:29.106Z,93782.81
2022-09-28T10:58:42.160Z,93776.75
2022-09-28T10:59:44.186Z,93784.59
2022-09-28T11:00:45.761Z,93779.72
2022-09-28T11:01:47.437Z,93775.28
2022-09-28T11:02:49.097Z,93771.13
2022-09-28T11:04:02.655Z,93768.66
2022-09-28T11:05:07.061Z,93768.19
2022-09-28T11:06:08.878Z,93756.22
2022-09-28T11:07:18.485Z,93777.19
2022-09-28T11:08:29.819Z,93777.97
2022-09-28T11:09:35.167Z,93771.13
2022-09-28T11:10:37.286Z,93767.00
2022-09-28T11:11:42.872Z,93771.00
2022-09-28T11:12:45.460Z,93767.00
2022-09-28T11:14:03.675Z,93770.69
2022-09-28T11:15:07.703Z,93762.09
2022-09-28T11:16:20.976Z,93764.16
2022-09-28T11:17:32.471Z,93766.38
2022-09-28T11:18:34.665Z,93772.28
2022-09-28T11:19:36.774Z,93769.31
2022-09-28T11:20:41.358Z,93770.06
2022-09-28T11:21:46.225Z,93762.25
2022-09-28T11:22:51.744Z,93756.75
2022-09-28T11:24:19.914Z,93757.06
2022-09-28T11:25:27.233Z,93751.13
2022-09-28T11:26:37.482Z,93746.69
2022-09-28T11:27:39.147Z,93746.13
2022-09-28T11:28:42.081Z,93738.28
2022-09-28T11:29:51.072Z,93738.28
2022-09-28T11:30:53.672Z,93736.81
2022-09-28T11:32:00.976Z,93729.44
2022-09-28T11:33:17.666Z,93739.94
2022-09-28T11:34:57.599Z,93735.78
2022-09-28T11:36:17.206Z,93736.69
2022-09-28T11:37:27.994Z,93735.06
2022-09-28T11:38:36.177Z,93730.91
2022-09-28T11:39:49.785Z,93732.09
2022-09-28T11:41:02.591Z,93733.13
2022-09-28T11:42:14.214Z,93734.31
2022-09-28T11:43:46.405Z,93742.91
2022-09-28T11:45:04.308Z,93736.41
2022-09-28T11:46:32.394Z,93742.03
2022-09-28T11:47:50.582Z,93744.25
2022-09-28T11:48:56.621Z,93750.75
2022-09-28T11:50:14.593Z,93748.81
2022-09-28T11:51:31.608Z,93744.81
2022-09-28T11:53:20.698Z,93736.53
2022-09-28T11:54:35.572Z,93750.72
2022-09-28T11:56:08.581Z,93738.75
2022-09-28T11:57:21.271Z,93736.81
2022-09-28T11:58:40.164Z,93736.53
2022-09-28T12:00:04.285Z,93735.19
2022-09-28T12:01:25.658Z,93735.34
2022-09-28T12:02:36.393Z,93731.19
2022-09-28T12:03:46.456Z,93732.19
2022-09-28T12:04:54.034Z,93735.00
2022-09-28T12:06:00.964Z,93728.06
2022-09-28T12:07:23.403Z,93722.03
2022-09-28T12:08:30.063Z,93735.78
2022-09-28T12:09:41.178Z,93737.38
2022-09-28T12:10:48.852Z,93727.75
2022-09-28T12:11:58.796Z,93732.19
2022-09-28T12:13:14.553Z,93733.38
2022-09-28T12:14:26.312Z,93735.00
2022-09-28T12:16:06.890Z,93728.19
2022-09-28T12:17:23.684Z,93736.72
2022-09-28T12:19:03.681Z,93737.00
2022-09-28T12:20:21.659Z,93729.66
2022-09-28T12:21:42.738Z,93740.88
2022-09-28T12:23:01.931Z,93728.19
2022-09-28T12:24:15.008Z,93742.06
2022-09-28T12:25:21.224Z,93739.41
2022-09-28T12:26:39.113Z,93748.44
2022-09-28T12:27:55.712Z,93733.06
2022-09-28T12:29:07.057Z,93723.75
2022-09-28T12:30:15.862Z,93730.25
2022-09-28T12:31:24.053Z,93726.97
2022-09-28T12:32:28.553Z,93727.09
2022-09-28T12:33:30.091Z,93732.91
2022-09-28T12:34:31.971Z,93740.72
2022-09-28T12:36:03.711Z,93736.28
2022-09-28T12:37:12.972Z,93754.19
2022-09-28T12:38:29.158Z,93734.38
2022-09-28T12:39:57.449Z,93744.28
2022-09-28T12:41:17.560Z,93738.81
2022-09-28T12:42:21.729Z,93731.22
2022-09-28T12:43:44.622Z,93730.50
2022-09-28T12:45:08.847Z,93726.81
2022-09-28T12:46:25.578Z,93734.78
2022-09-28T12:48:01.555Z,93731.09
2022-09-28T12:50:27.307Z,93730.50
2022-09-28T12:51:03.925Z,93730.50
2022-09-28T12:52:32.868Z,93741.75
2022-09-28T12:53:58.660Z,93747.09
2022-09-28T12:55:19.188Z,93741.00
2022-09-28T12:56:37.447Z,93728.88
2022-09-28T12:58:00.310Z,93737.31
2022-09-28T12:59:04.906Z,93726.22
2022-09-28T13:00:14.026Z,93730.50
2022-09-28T13:01:18.581Z,93729.75
2022-09-28T13:02:49.530Z,93726.81
2022-09-28T13:03:59.118Z,93727.69
2022-09-28T13:05:16.004Z,93738.81
2022-09-28T13:06:32.718Z,93741.00
2022-09-28T13:07:56.339Z,93737.31
2022-09-28T13:09:17.227Z,93754.19
2022-09-28T13:10:34.225Z,93751.25
2022-09-28T13:12:23.386Z,93745.63
2022-09-28T13:13:39.477Z,93736.88
2022-09-28T13:14:51.271Z,93730.84
2022-09-28T13:16:30.939Z,93723.59
2022-09-28T13:18:29.953Z,93725.94